hwlogo.jpg (8581 bytes)
Home Your Weather Products Services Weather On Your Site Contact
HW Version Logo
Weather Info
Your Weather (Options)
Canadian Weather
International Weather
Enter your " Place, State", US Zip Code or ICAO:  
Forecast Information Radar Information
Prince Rupert, British Columbia, Canada  Lat: 54.27N, Lon: 130.43W
ICAO Used: CYPR
Current Conditions
Updated: 7:00 AM PST TUE FEB 20 2018
Sun & Moon Information
Clear
Clear
Temp: -4°C
Humidity: 92%
Wind Speed: ENE 6 MPH
Barometer: 1024 mb
Dewpoint: -5°C
Heat Index: -4°C
Wind Chill: -8°C
Civil Twilight: 7:15 AM PST Moon Phase:
Waxing Crescent Moon
Sunrise: 7:52 AM PST
Sunset: 5:58 PM PST
Civil Twilight: 6:34 PM PST
Forecast for Prince Rupert, BC:
(Forecast based on TAF for )
0539 AM PST TUE FEB 20 2018
  
MORNING AFTERNOON EVENING OVERNIGHT
Partly
Cloudy
Partly
Cloudy
Partly
Cloudy
Partly
Cloudy
ZoneCast:
Dated: 0539 AM PST TUE FEB 20 2018
Morning...Partly cloudy with winds from the eastnortheast at 6 mph.

Afternoon...Partly cloudy with winds from the eastnortheast at 6 mph.

Evening...Partly cloudy with winds from the eastnortheast at 6 mph.

Overnight...Partly cloudy with winds from the eastnortheast at 6 mph.

Original Encoded TAF:
Dated: 0539 AM PST TUE FEB 20 2018
2018/02/20 13:39
TAF CYPR 201238Z 2013/2101 07005KT P6SM SCT015 
      TEMPO 2013/2018 BKN015 
      RMK FCST BASED ON AUTO OBS. NXT FCST BY 201900Z